Time,TemperatureF,DewpointF,PressureIn,WindDirection,WindDirectionDegrees,WindSpeedMPH,WindSpeedGustMPH,Humidity,HourlyPrecipIn,Conditions,Clouds,dailyrainin,SoftwareType,DateUTC
2013-03-11 00:02:00,21.1,19.1,29.88,North,351,14.0,-999.0,92,0.00,,,0.00,Wunderground v.1.15,2013-03-11 05:02:00,
2013-03-11 00:08:00,21.3,19.3,29.88,North,351,13.0,-999.0,92,0.00,,,0.00,Wunderground v.1.15,2013-03-11 05:08:00,
2013-03-11 00:13:00,21.3,19.3,29.88,NNW,346,13.0,-999.0,92,0.00,,,0.00,Wunderground v.1.15,2013-03-11 05:13:00,
2013-03-11 00:19:00,21.3,19.3,29.88,NNW,348,15.0,-999.0,92,0.00,,,0.00,Wunderground v.1.15,2013-03-11 05:19:00,
2013-03-11 00:24:00,21.1,19.1,29.88,North,350,10.0,-999.0,92,0.00,,,0.00,Wunderground v.1.15,2013-03-11 05:24:00,
2013-03-11 00:29:00,21.1,18.9,29.87,NNW,345,16.0,-999.0,91,0.00,,,0.00,Wunderground v.1.15,2013-03-11 05:29:00,
2013-03-11 00:35:00,21.1,19.1,29.87,North,349,15.0,-999.0,92,0.00,,,0.00,Wunderground v.1.15,2013-03-11 05:35:00,
2013-03-11 00:41:00,21.1,18.9,29.87,NW,326,17.0,-999.0,91,0.00,,,0.00,Wunderground v.1.15,2013-03-11 05:41:00,
2013-03-11 00:46:00,21.0,18.8,29.87,NNW,338,14.0,-999.0,91,0.00,,,0.00,Wunderground v.1.15,2013-03-11 05:46:00,
2013-03-11 00:52:00,21.0,18.8,29.87,NNW,333,18.0,-999.0,91,0.00,,,0.00,Wunderground v.1.15,2013-03-11 05:52:00,
2013-03-11 00:57:00,21.0,18.8,29.87,North,350,10.0,-999.0,91,0.00,,,0.00,Wunderground v.1.15,2013-03-11 05:57:00,
2013-03-11 01:02:00,20.8,18.6,29.87,NNW,340,19.0,-999.0,91,0.00,,,0.00,Wunderground v.1.15,2013-03-11 06:02:00,
2013-03-11 01:07:00,20.6,18.4,29.87,North,360,14.0,-999.0,91,0.00,,,0.00,Wunderground v.1.15,2013-03-11 06:07:00,
2013-03-11 01:12:00,20.6,18.4,29.87,NNW,346,12.0,-999.0,91,0.00,,,0.00,Wunderground v.1.15,2013-03-11 06:12:00,
2013-03-11 01:17:00,20.6,18.4,29.87,North,351,18.0,-999.0,91,0.00,,,0.00,Wunderground v.1.15,2013-03-11 06:17:00,
2013-03-11 01:23:00,20.6,18.4,29.87,North,360,19.0,-999.0,91,0.00,,,0.00,Wunderground v.1.15,2013-03-11 06:23:00,
2013-03-11 01:28:00,20.6,18.1,29.86,NNW,338,13.0,-999.0,90,0.00,,,0.00,Wunderground v.1.15,2013-03-11 06:28:00,
2013-03-11 01:33:00,20.6,18.1,29.86,North,360,17.0,-999.0,90,0.00,,,0.00,Wunderground v.1.15,2013-03-11 06:33:00,
2013-03-11 01:39:00,20.8,18.3,29.86,NNW,344,12.0,-999.0,90,0.00,,,0.00,Wunderground v.1.15,2013-03-11 06:39:00,
2013-03-11 01:44:00,20.8,18.3,29.86,NNW,346,16.0,-999.0,90,0.00,,,0.00,Wunderground v.1.15,2013-03-11 06:44:00,
2013-03-11 01:49:00,20.8,18.3,29.86,NNE,15,10.0,-999.0,90,0.00,,,0.00,Wunderground v.1.15,2013-03-11 06:49:00,
2013-03-11 01:55:00,20.8,18.3,29.86,North,350,10.0,-999.0,90,0.00,,,0.00,Wunderground v.1.15,2013-03-11 06:55:00,
2013-03-11 02:00:00,20.6,18.1,29.85,North,360,13.0,-999.0,90,0.00,,,0.00,Wunderground v.1.15,2013-03-11 07:00:00,
2013-03-11 02:05:00,20.6,18.1,29.85,North,360,11.0,-999.0,90,0.00,,,0.00,Wunderground v.1.15,2013-03-11 07:05:00,
2013-03-11 02:10:00,20.8,18.3,29.85,North,349,17.0,-999.0,90,0.00,,,0.00,Wunderground v.1.15,2013-03-11 07:10:00,
2013-03-11 02:15:00,21.0,18.5,29.85,North,10,13.0,-999.0,90,0.00,,,0.00,Wunderground v.1.15,2013-03-11 07:15:00,
2013-03-11 02:20:00,21.1,18.6,29.85,NNW,335,11.0,-999.0,90,0.00,,,0.00,Wunderground v.1.15,2013-03-11 07:20:00,
2013-03-11 02:25:00,21.3,18.8,29.85,North,360,12.0,-999.0,90,0.00,,,0.00,Wunderground v.1.15,2013-03-11 07:25:00,
2013-03-11 02:30:00,21.4,18.9,29.85,North,351,12.0,-999.0,90,0.00,,,0.00,Wunderground v.1.15,2013-03-11 07:30:00,
2013-03-11 02:35:00,21.6,19.1,29.85,North,360,14.0,-999.0,90,0.00,,,0.00,Wunderground v.1.15,2013-03-11 07:35:00,
2013-03-11 02:40:00,21.8,19.3,29.85,NNE,16,12.0,-999.0,90,0.00,,,0.00,Wunderground v.1.15,2013-03-11 07:40:00,
2013-03-11 02:45:00,21.8,19.3,29.85,North,360,13.0,-999.0,90,0.00,,,0.00,Wunderground v.1.15,2013-03-11 07:45:00,
2013-03-11 02:50:00,21.9,19.2,29.85,NNW,329,7.0,-999.0,89,0.00,,,0.00,Wunderground v.1.15,2013-03-11 07:50:00,
2013-03-11 02:55:00,21.9,19.2,29.85,North,360,11.0,-999.0,89,0.00,,,0.00,Wunderground v.1.15,2013-03-11 07:55:00,
2013-03-11 03:00:00,21.6,18.9,29.85,North,360,13.0,-999.0,89,0.00,,,0.00,Wunderground v.1.15,2013-03-11 08:00:00,
2013-03-11 03:05:00,21.4,18.7,29.85,NNE,20,9.0,-999.0,89,0.00,,,0.00,Wunderground v.1.15,2013-03-11 08:05:00,
2013-03-11 03:10:00,21.4,18.7,29.85,NNW,342,11.0,-999.0,89,0.00,,,0.00,Wunderground v.1.15,2013-03-11 08:10:00,
2013-03-11 03:15:00,21.3,18.6,29.84,NNW,337,11.0,-999.0,89,0.00,,,0.00,Wunderground v.1.15,2013-03-11 08:15:00,
2013-03-11 03:20:00,21.1,18.4,29.84,NNW,339,7.0,-999.0,89,0.00,,,0.00,Wunderground v.1.15,2013-03-11 08:20:00,
2013-03-11 03:25:00,21.3,18.6,29.84,NNW,344,10.0,-999.0,89,0.00,,,0.00,Wunderground v.1.15,2013-03-11 08:25:00,
2013-03-11 03:31:00,21.3,18.6,29.84,NNW,339,6.0,-999.0,89,0.00,,,0.00,Wunderground v.1.15,2013-03-11 08:31:00,
2013-03-11 03:36:00,21.3,18.6,29.84,NW,323,10.0,-999.0,89,0.00,,,0.00,Wunderground v.1.15,2013-03-11 08:36:00,
2013-03-11 03:41:00,21.1,18.4,29.84,NNW,329,11.0,-999.0,89,0.00,,,0.00,Wunderground v.1.15,2013-03-11 08:41:00,
2013-03-11 03:46:00,20.6,17.6,29.84,North,360,14.0,-999.0,88,0.00,,,0.00,Wunderground v.1.15,2013-03-11 08:46:00,
2013-03-11 03:51:00,20.2,17.5,29.84,NNW,331,15.0,-999.0,89,0.00,,,0.00,Wunderground v.1.15,2013-03-11 08:51:00,
2013-03-11 03:56:00,20.2,17.5,29.84,North,350,11.0,-999.0,89,0.00,,,0.00,Wunderground v.1.15,2013-03-11 08:56:00,
2013-03-11 04:01:00,20.2,17.5,29.83,NNW,344,9.0,-999.0,89,0.00,,,0.00,Wunderground v.1.15,2013-03-11 09:01:00,
2013-03-11 04:06:00,20.3,17.6,29.83,North,5,13.0,-999.0,89,0.00,,,0.00,Wunderground v.1.15,2013-03-11 09:06:00,
2013-03-11 04:11:00,20.3,17.6,29.83,North,360,9.0,-999.0,89,0.00,,,0.00,Wunderground v.1.15,2013-03-11 09:11:00,
2013-03-11 04:16:00,20.5,17.8,29.82,North,351,9.0,-999.0,89,0.00,,,0.00,Wunderground v.1.15,2013-03-11 09:16:00,
2013-03-11 04:21:00,20.5,17.8,29.82,North,350,14.0,-999.0,89,0.00,,,0.00,Wunderground v.1.15,2013-03-11 09:21:00,
2013-03-11 04:26:00,20.5,17.8,29.82,North,360,17.0,-999.0,89,0.00,,,0.00,Wunderground v.1.15,2013-03-11 09:26:00,
2013-03-11 04:31:00,20.5,17.8,29.82,NNW,339,11.0,-999.0,89,0.00,,,0.00,Wunderground v.1.15,2013-03-11 09:31:00,
2013-03-11 04:36:00,20.5,17.8,29.82,NNW,346,18.0,-999.0,89,0.00,,,0.00,Wunderground v.1.15,2013-03-11 09:36:00,
2013-03-11 04:41:00,20.3,17.3,29.82,NNW,341,14.0,-999.0,88,0.00,,,0.00,Wunderground v.1.15,2013-03-11 09:41:00,
2013-03-11 04:46:00,20.3,17.3,29.82,North,351,13.0,-999.0,88,0.00,,,0.00,Wunderground v.1.15,2013-03-11 09:46:00,
2013-03-11 04:51:00,20.3,17.3,29.82,North,351,12.0,-999.0,88,0.00,,,0.00,Wunderground v.1.15,2013-03-11 09:51:00,
2013-03-11 04:57:00,20.3,17.3,29.82,North,360,13.0,-999.0,88,0.00,,,0.00,Wunderground v.1.15,2013-03-11 09:57:00,
2013-03-11 05:02:00,20.3,17.3,29.82,NNW,338,9.0,-999.0,88,0.00,,,0.00,Wunderground v.1.15,2013-03-11 10:02:00,
2013-03-11 05:07:00,20.5,17.5,29.82,NW,324,6.0,-999.0,88,0.00,,,0.00,Wunderground v.1.15,2013-03-11 10:07:00,
2013-03-11 05:12:00,20.5,17.5,29.82,NW,325,14.0,-999.0,88,0.00,,,0.00,Wunderground v.1.15,2013-03-11 10:12:00,
2013-03-11 05:17:00,20.3,17.3,29.82,NNW,348,10.0,-999.0,88,0.00,,,0.00,Wunderground v.1.15,2013-03-11 10:17:00,
2013-03-11 05:22:00,20.3,17.3,29.82,NNW,348,10.0,-999.0,88,0.00,,,0.00,Wunderground v.1.15,2013-03-11 10:22:00,
2013-03-11 05:27:00,20.2,17.2,29.82,NNW,340,13.0,-999.0,88,0.00,,,0.00,Wunderground v.1.15,2013-03-11 10:27:00,
2013-03-11 05:32:00,20.0,17.0,29.82,NNW,333,8.0,-999.0,88,0.00,,,0.00,Wunderground v.1.15,2013-03-11 10:32:00,
2013-03-11 05:37:00,19.9,16.9,29.82,NNW,343,12.0,-999.0,88,0.00,,,0.00,Wunderground v.1.15,2013-03-11 10:37:00,
2013-03-11 05:42:00,19.7,16.7,29.82,North,360,9.0,-999.0,88,0.00,,,0.00,Wunderground v.1.15,2013-03-11 10:42:00,
2013-03-11 05:47:00,19.5,16.5,29.82,NNW,339,15.0,-999.0,88,0.00,,,0.00,Wunderground v.1.15,2013-03-11 10:47:00,
2013-03-11 05:52:00,19.5,16.5,29.82,North,360,12.0,-999.0,88,0.00,,,0.00,Wunderground v.1.15,2013-03-11 10:52:00,
2013-03-11 05:57:00,19.5,16.5,29.82,North,351,11.0,-999.0,88,0.00,,,0.00,Wunderground v.1.15,2013-03-11 10:57:00,
2013-03-11 06:02:00,19.4,16.4,29.82,North,350,11.0,-999.0,88,0.00,,,0.00,Wunderground v.1.15,2013-03-11 11:02:00,
2013-03-11 06:07:00,19.4,16.4,29.82,NW,316,5.0,-999.0,88,0.00,,,0.00,Wunderground v.1.15,2013-03-11 11:07:00,
2013-03-11 06:12:00,19.5,16.5,29.82,NW,319,7.0,-999.0,88,0.00,,,0.00,Wunderground v.1.15,2013-03-11 11:12:00,
2013-03-11 06:17:00,19.5,16.5,29.82,NNW,334,5.0,-999.0,88,0.00,,,0.00,Wunderground v.1.15,2013-03-11 11:17:00,
2013-03-11 06:22:00,19.7,16.7,29.82,NNW,348,10.0,-999.0,88,0.00,,,0.00,Wunderground v.1.15,2013-03-11 11:22:00,
2013-03-11 06:27:00,19.9,16.9,29.82,NNW,344,12.0,-999.0,88,0.00,,,0.00,Wunderground v.1.15,2013-03-11 11:27:00,
2013-03-11 06:32:00,19.9,16.9,29.83,NNW,329,10.0,-999.0,88,0.00,,,0.00,Wunderground v.1.15,2013-03-11 11:32:00,
2013-03-11 06:37:00,19.9,16.9,29.83,NNW,339,11.0,-999.0,88,0.00,,,0.00,Wunderground v.1.15,2013-03-11 11:37:00,
2013-03-11 06:42:00,19.9,16.9,29.83,NW,321,16.0,-999.0,88,0.00,,,0.00,Wunderground v.1.15,2013-03-11 11:42:00,
2013-03-11 06:47:00,19.9,16.9,29.83,NNW,346,14.0,-999.0,88,0.00,,,0.00,Wunderground v.1.15,2013-03-11 11:47:00,
2013-03-11 06:52:00,19.9,16.9,29.83,NNW,346,9.0,-999.0,88,0.00,,,0.00,Wunderground v.1.15,2013-03-11 11:52:00,
2013-03-11 06:57:00,19.7,16.5,29.83,NW,325,11.0,-999.0,87,0.00,,,0.00,Wunderground v.1.15,2013-03-11 11:57:00,
2013-03-11 07:02:00,19.7,16.5,29.83,NNW,346,12.0,-999.0,87,0.00,,,0.00,Wunderground v.1.15,2013-03-11 12:02:00,
2013-03-11 07:07:00,19.5,16.3,29.83,NNW,337,11.0,-999.0,87,0.00,,,0.00,Wunderground v.1.15,2013-03-11 12:07:00,
2013-03-11 07:12:00,19.7,16.5,29.83,NW,323,14.0,-999.0,87,0.00,,,0.00,Wunderground v.1.15,2013-03-11 12:12:00,
2013-03-11 07:17:00,19.7,16.5,29.83,NNW,331,7.0,-999.0,87,0.00,,,0.00,Wunderground v.1.15,2013-03-11 12:17:00,
2013-03-11 07:22:00,19.7,16.5,29.83,NNW,332,10.0,-999.0,87,0.00,,,0.00,Wunderground v.1.15,2013-03-11 12:22:00,
2013-03-11 07:27:00,19.7,16.5,29.83,North,360,11.0,-999.0,87,0.00,,,0.00,Wunderground v.1.15,2013-03-11 12:27:00,
2013-03-11 07:33:00,19.7,16.5,29.83,NNW,346,6.0,-999.0,87,0.00,,,0.00,Wunderground v.1.15,2013-03-11 12:33:00,
2013-03-11 07:38:00,19.7,16.5,29.83,NNW,331,11.0,-999.0,87,0.00,,,0.00,Wunderground v.1.15,2013-03-11 12:38:00,
2013-03-11 07:43:00,19.7,16.2,29.83,NNW,346,9.0,-999.0,86,0.00,,,0.00,Wunderground v.1.15,2013-03-11 12:43:00,
2013-03-11 07:47:00,19.7,16.2,29.83,NNW,346,11.0,-999.0,86,0.00,,,0.00,Wunderground v.1.15,2013-03-11 12:47:00,
2013-03-11 07:52:00,19.7,16.2,29.83,NNW,348,8.0,-999.0,86,0.00,,,0.00,Wunderground v.1.15,2013-03-11 12:52:00,
2013-03-11 07:58:00,19.7,16.2,29.83,NNW,332,13.0,-999.0,86,0.00,,,0.00,Wunderground v.1.15,2013-03-11 12:58:00,
2013-03-11 08:03:00,19.9,16.4,29.83,NNW,342,4.0,-999.0,86,0.00,,,0.00,Wunderground v.1.15,2013-03-11 13:03:00,
2013-03-11 08:08:00,19.9,16.4,29.83,NW,319,10.0,-999.0,86,0.00,,,0.00,Wunderground v.1.15,2013-03-11 13:08:00,
2013-03-11 08:13:00,19.9,16.4,29.84,NNW,342,7.0,-999.0,86,0.00,,,0.00,Wunderground v.1.15,2013-03-11 13:13:00,
2013-03-11 08:18:00,20.0,16.5,29.84,NNW,347,6.0,-999.0,86,0.00,,,0.00,Wunderground v.1.15,2013-03-11 13:18:00,
2013-03-11 08:23:00,20.0,16.5,29.84,NNW,338,6.0,-999.0,86,0.00,,,0.00,Wunderground v.1.15,2013-03-11 13:23:00,
2013-03-11 08:28:00,20.0,16.5,29.83,NNW,344,11.0,-999.0,86,0.00,,,0.00,Wunderground v.1.15,2013-03-11 13:28:00,
2013-03-11 08:33:00,19.9,16.4,29.83,NNW,333,11.0,-999.0,86,0.00,,,0.00,Wunderground v.1.15,2013-03-11 13:33:00,
2013-03-11 08:38:00,19.9,16.4,29.83,North,360,9.0,-999.0,86,0.00,,,0.00,Wunderground v.1.15,2013-03-11 13:38:00,
2013-03-11 08:43:00,20.0,16.5,29.83,North,351,14.0,-999.0,86,0.00,,,0.00,Wunderground v.1.15,2013-03-11 13:43:00,
2013-03-11 08:48:00,20.0,16.2,29.83,NW,315,8.0,-999.0,85,0.00,,,0.00,Wunderground v.1.15,2013-03-11 13:48:00,
2013-03-11 08:53:00,20.2,16.7,29.83,NNW,329,6.0,-999.0,86,0.00,,,0.00,Wunderground v.1.15,2013-03-11 13:53:00,
2013-03-11 08:58:00,20.3,16.8,29.83,WNW,303,11.0,-999.0,86,0.00,,,0.00,Wunderground v.1.15,2013-03-11 13:58:00,
2013-03-11 09:03:00,20.2,16.4,29.83,North,360,13.0,-999.0,85,0.00,,,0.00,Wunderground v.1.15,2013-03-11 14:03:00,
2013-03-11 09:08:00,20.2,16.4,29.83,NW,307,9.0,-999.0,85,0.00,,,0.00,Wunderground v.1.15,2013-03-11 14:08:00,
2013-03-11 09:13:00,20.3,16.5,29.83,NNW,333,10.0,-999.0,85,0.00,,,0.00,Wunderground v.1.15,2013-03-11 14:13:00,
2013-03-11 09:18:00,20.3,16.5,29.83,NW,322,12.0,-999.0,85,0.00,,,0.00,Wunderground v.1.15,2013-03-11 14:18:00,
2013-03-11 09:23:00,20.3,16.5,29.83,NW,311,4.0,-999.0,85,0.00,,,0.00,Wunderground v.1.15,2013-03-11 14:23:00,
2013-03-11 09:28:00,20.3,16.5,29.84,NW,310,14.0,-999.0,85,0.00,,,0.00,Wunderground v.1.15,2013-03-11 14:28:00,
2013-03-11 09:33:00,20.5,16.7,29.84,NNW,335,6.0,-999.0,85,0.00,,,0.00,Wunderground v.1.15,2013-03-11 14:33:00,
2013-03-11 09:38:00,20.5,16.7,29.84,NW,315,16.0,-999.0,85,0.00,,,0.00,Wunderground v.1.15,2013-03-11 14:38:00,
2013-03-11 09:43:00,20.5,16.4,29.83,NNW,334,11.0,-999.0,84,0.00,,,0.00,Wunderground v.1.15,2013-03-11 14:43:00,
2013-03-11 09:48:00,20.6,16.8,29.83,NNW,334,7.0,-999.0,85,0.00,,,0.00,Wunderground v.1.15,2013-03-11 14:48:00,
2013-03-11 09:53:00,21.0,16.9,29.83,NNW,330,16.0,-999.0,84,0.00,,,0.00,Wunderground v.1.15,2013-03-11 14:53:00,
2013-03-11 09:58:00,21.0,16.9,29.84,NNW,336,12.0,-999.0,84,0.00,,,0.00,Wunderground v.1.15,2013-03-11 14:58:00,
2013-03-11 10:03:00,21.1,17.0,29.84,NNW,333,12.0,-999.0,84,0.00,,,0.00,Wunderground v.1.15,2013-03-11 15:03:00,
2013-03-11 10:08:00,21.1,17.0,29.84,NNW,327,12.0,-999.0,84,0.00,,,0.00,Wunderground v.1.15,2013-03-11 15:08:00,
2013-03-11 10:14:00,21.1,17.0,29.84,NNW,329,9.0,-999.0,84,0.00,,,0.00,Wunderground v.1.15,2013-03-11 15:14:00,
2013-03-11 10:19:00,21.3,17.2,29.84,NNW,328,6.0,-999.0,84,0.00,,,0.00,Wunderground v.1.15,2013-03-11 15:19:00,
2013-03-11 10:24:00,21.1,17.0,29.84,NW,326,12.0,-999.0,84,0.00,,,0.00,Wunderground v.1.15,2013-03-11 15:24:00,
2013-03-11 10:29:00,21.3,17.2,29.84,NNW,344,9.0,-999.0,84,0.00,,,0.00,Wunderground v.1.15,2013-03-11 15:29:00,
2013-03-11 10:34:00,21.4,17.0,29.84,NNW,333,7.0,-999.0,83,0.00,,,0.00,Wunderground v.1.15,2013-03-11 15:34:00,
2013-03-11 10:39:00,21.4,17.0,29.84,NNW,331,7.0,-999.0,83,0.00,,,0.00,Wunderground v.1.15,2013-03-11 15:39:00,
2013-03-11 10:44:00,21.6,17.0,29.84,NNW,329,14.0,-999.0,82,0.00,,,0.00,Wunderground v.1.15,2013-03-11 15:44:00,
2013-03-11 10:49:00,21.4,17.0,29.84,North,360,6.0,-999.0,83,0.00,,,0.00,Wunderground v.1.15,2013-03-11 15:49:00,
2013-03-11 10:54:00,21.6,17.2,29.84,North,350,10.0,-999.0,83,0.00,,,0.00,Wunderground v.1.15,2013-03-11 15:54:00,
2013-03-11 10:59:00,21.8,17.2,29.84,NNW,333,9.0,-999.0,82,0.00,,,0.00,Wunderground v.1.15,2013-03-11 15:59:00,
2013-03-11 11:04:00,21.9,17.5,29.84,NNW,346,9.0,-999.0,83,0.00,,,0.00,Wunderground v.1.15,2013-03-11 16:04:00,
2013-03-11 11:09:00,22.1,17.4,29.84,NW,319,15.0,-999.0,82,0.00,,,0.00,Wunderground v.1.15,2013-03-11 16:09:00,
2013-03-11 11:14:00,22.2,17.5,29.84,NNW,334,6.0,-999.0,82,0.00,,,0.00,Wunderground v.1.15,2013-03-11 16:14:00,
2013-03-11 11:19:00,22.2,17.3,29.84,NW,326,9.0,-999.0,81,0.00,,,0.00,Wunderground v.1.15,2013-03-11 16:19:00,
2013-03-11 11:24:00,22.2,17.5,29.84,North,360,12.0,-999.0,82,0.00,,,0.00,Wunderground v.1.15,2013-03-11 16:24:00,
2013-03-11 11:29:00,22.5,17.5,29.84,NNW,340,11.0,-999.0,81,0.00,,,0.00,Wunderground v.1.15,2013-03-11 16:29:00,
2013-03-11 11:34:00,22.5,17.5,29.84,NNW,327,11.0,-999.0,81,0.00,,,0.00,Wunderground v.1.15,2013-03-11 16:34:00,
2013-03-11 11:39:00,22.7,17.7,29.84,NW,310,11.0,-999.0,81,0.00,,,0.00,Wunderground v.1.15,2013-03-11 16:39:00,
2013-03-11 11:44:00,22.7,17.7,29.83,North,351,11.0,-999.0,81,0.00,,,0.00,Wunderground v.1.15,2013-03-11 16:44:00,
2013-03-11 11:49:00,22.9,17.9,29.83,NW,324,16.0,-999.0,81,0.00,,,0.00,Wunderground v.1.15,2013-03-11 16:49:00,
2013-03-11 11:54:00,22.9,17.7,29.83,NNW,344,12.0,-999.0,80,0.00,,,0.00,Wunderground v.1.15,2013-03-11 16:54:00,
2013-03-11 11:59:00,23.2,17.9,29.83,NW,311,14.0,-999.0,80,0.00,,,0.00,Wunderground v.1.15,2013-03-11 16:59:00,
2013-03-11 12:04:00,23.3,17.7,29.83,NNW,344,11.0,-999.0,79,0.00,,,0.00,Wunderground v.1.15,2013-03-11 17:04:00,
2013-03-11 12:09:00,23.2,17.4,29.83,NNW,334,12.0,-999.0,78,0.00,,,0.00,Wunderground v.1.15,2013-03-11 17:09:00,
2013-03-11 12:14:00,23.2,17.7,29.82,NNW,337,13.0,-999.0,79,0.00,,,0.00,Wunderground v.1.15,2013-03-11 17:14:00,
2013-03-11 12:19:00,23.3,17.5,29.82,NW,321,14.0,-999.0,78,0.00,,,0.00,Wunderground v.1.15,2013-03-11 17:19:00,
2013-03-11 12:24:00,23.3,17.5,29.82,NW,324,9.0,-999.0,78,0.00,,,0.00,Wunderground v.1.15,2013-03-11 17:24:00,
2013-03-11 12:29:00,23.3,17.5,29.82,NNW,332,9.0,-999.0,78,0.00,,,0.00,Wunderground v.1.15,2013-03-11 17:29:00,
2013-03-11 12:34:00,23.3,17.5,29.82,NNW,347,15.0,-999.0,78,0.00,,,0.00,Wunderground v.1.15,2013-03-11 17:34:00,
2013-03-11 12:39:00,23.5,17.3,29.82,North,351,10.0,-999.0,77,0.00,,,0.00,Wunderground v.1.15,2013-03-11 17:39:00,
2013-03-11 12:44:00,23.5,17.0,29.82,WNW,300,13.0,-999.0,76,0.00,,,0.00,Wunderground v.1.15,2013-03-11 17:44:00,
2013-03-11 12:49:00,23.5,17.3,29.82,NNW,329,14.0,-999.0,77,0.00,,,0.00,Wunderground v.1.15,2013-03-11 17:49:00,
2013-03-11 12:54:00,23.5,17.0,29.82,NNW,336,10.0,-999.0,76,0.00,,,0.00,Wunderground v.1.15,2013-03-11 17:54:00,
2013-03-11 12:59:00,23.6,16.8,29.82,North,351,7.0,-999.0,75,0.00,,,0.00,Wunderground v.1.15,2013-03-11 17:59:00,
2013-03-11 13:04:00,23.8,17.3,29.82,NNW,340,12.0,-999.0,76,0.00,,,0.00,Wunderground v.1.15,2013-03-11 18:04:00,
2013-03-11 13:09:00,23.5,16.7,29.82,NNW,333,11.0,-999.0,75,0.00,,,0.00,Wunderground v.1.15,2013-03-11 18:09:00,
2013-03-11 13:15:00,23.6,17.1,29.82,NNW,343,13.0,-999.0,76,0.00,,,0.00,Wunderground v.1.15,2013-03-11 18:15:00,
2013-03-11 13:20:00,23.6,17.4,29.82,NNW,338,12.0,-999.0,77,0.00,,,0.00,Wunderground v.1.15,2013-03-11 18:20:00,
2013-03-11 13:25:00,23.8,17.3,29.82,NNW,334,9.0,-999.0,76,0.00,,,0.00,Wunderground v.1.15,2013-03-11 18:25:00,
2013-03-11 13:30:00,24.1,17.3,29.81,NNW,327,14.0,-999.0,75,0.00,,,0.00,Wunderground v.1.15,2013-03-11 18:30:00,
2013-03-11 13:35:00,24.1,17.0,29.81,NNW,334,14.0,-999.0,74,0.00,,,0.00,Wunderground v.1.15,2013-03-11 18:35:00,
2013-03-11 13:40:00,24.2,17.4,29.81,NW,326,14.0,-999.0,75,0.00,,,0.00,Wunderground v.1.15,2013-03-11 18:40:00,
2013-03-11 13:45:00,24.2,17.1,29.81,NNW,344,11.0,-999.0,74,0.00,,,0.00,Wunderground v.1.15,2013-03-11 18:45:00,
2013-03-11 13:50:00,24.2,17.1,29.81,NNW,327,11.0,-999.0,74,0.00,,,0.00,Wunderground v.1.15,2013-03-11 18:50:00,
2013-03-11 13:55:00,24.2,17.1,29.81,NNW,342,15.0,-999.0,74,0.00,,,0.00,Wunderground v.1.15,2013-03-11 18:55:00,
2013-03-11 14:00:00,24.2,17.1,29.81,NNW,344,10.0,-999.0,74,0.00,,,0.00,Wunderground v.1.15,2013-03-11 19:00:00,
2013-03-11 14:05:00,24.4,17.3,29.81,NW,321,13.0,-999.0,74,0.00,,,0.00,Wunderground v.1.15,2013-03-11 19:05:00,
2013-03-11 14:10:00,24.4,17.3,29.81,North,360,8.0,-999.0,74,0.00,,,0.00,Wunderground v.1.15,2013-03-11 19:10:00,
2013-03-11 14:15:00,24.5,17.4,29.80,NNW,340,12.0,-999.0,74,0.00,,,0.00,Wunderground v.1.15,2013-03-11 19:15:00,
2013-03-11 14:20:00,24.8,17.7,29.80,NNW,331,14.0,-999.0,74,0.00,,,0.00,Wunderground v.1.15,2013-03-11 19:20:00,
2013-03-11 14:25:00,24.8,17.7,29.80,NNW,336,10.0,-999.0,74,0.00,,,0.00,Wunderground v.1.15,2013-03-11 19:25:00,
2013-03-11 14:30:00,24.7,17.3,29.80,NNW,343,10.0,-999.0,73,0.00,,,0.00,Wunderground v.1.15,2013-03-11 19:30:00,
2013-03-11 14:35:00,25.0,17.6,29.80,NW,317,10.0,-999.0,73,0.00,,,0.00,Wunderground v.1.15,2013-03-11 19:35:00,
2013-03-11 14:40:00,25.0,17.6,29.80,NNW,328,7.0,-999.0,73,0.00,,,0.00,Wunderground v.1.15,2013-03-11 19:40:00,
2013-03-11 14:45:00,25.1,17.7,29.79,NNW,333,16.0,-999.0,73,0.00,,,0.00,Wunderground v.1.15,2013-03-11 19:45:00,
2013-03-11 14:50:00,25.3,17.5,29.79,NNW,337,13.0,-999.0,72,0.00,,,0.00,Wunderground v.1.15,2013-03-11 19:50:00,
2013-03-11 14:55:00,25.3,17.5,29.79,North,360,12.0,-999.0,72,0.00,,,0.00,Wunderground v.1.15,2013-03-11 19:55:00,
2013-03-11 15:00:00,25.4,17.6,29.79,NW,311,8.0,-999.0,72,0.00,,,0.00,Wunderground v.1.15,2013-03-11 20:00:00,
2013-03-11 15:05:00,25.3,17.9,29.79,NNW,334,10.0,-999.0,73,0.00,,,0.00,Wunderground v.1.15,2013-03-11 20:05:00,
2013-03-11 15:10:00,25.4,17.9,29.79,NW,308,12.0,-999.0,73,0.00,,,0.00,Wunderground v.1.15,2013-03-11 20:10:00,
2013-03-11 15:15:00,25.3,17.9,29.80,NW,325,7.0,-999.0,73,0.00,,,0.00,Wunderground v.1.15,2013-03-11 20:15:00,
2013-03-11 15:20:00,25.4,17.3,29.80,NW,314,7.0,-999.0,71,0.00,,,0.00,Wunderground v.1.15,2013-03-11 20:20:00,
2013-03-11 15:26:00,25.3,17.2,29.80,NW,309,14.0,-999.0,71,0.00,,,0.00,Wunderground v.1.15,2013-03-11 20:26:00,
2013-03-11 15:31:00,25.4,17.3,29.80,WNW,297,15.0,-999.0,71,0.00,,,0.00,Wunderground v.1.15,2013-03-11 20:31:00,
2013-03-11 15:36:00,25.8,17.7,29.80,NW,310,7.0,-999.0,71,0.00,,,0.00,Wunderground v.1.15,2013-03-11 20:36:00,
2013-03-11 15:41:00,25.8,17.7,29.80,NNW,331,11.0,-999.0,71,0.00,,,0.00,Wunderground v.1.15,2013-03-11 20:41:00,
2013-03-11 15:46:00,26.1,18.0,29.81,NW,305,11.0,-999.0,71,0.00,,,0.00,Wunderground v.1.15,2013-03-11 20:46:00,
2013-03-11 15:51:00,26.1,17.6,29.81,NW,310,12.0,-999.0,70,0.00,,,0.00,Wunderground v.1.15,2013-03-11 20:51:00,
2013-03-11 15:56:00,26.3,17.8,29.81,NW,319,9.0,-999.0,70,0.00,,,0.00,Wunderground v.1.15,2013-03-11 20:56:00,
2013-03-11 16:01:00,26.1,17.3,29.82,NNW,336,14.0,-999.0,69,0.00,,,0.00,Wunderground v.1.15,2013-03-11 21:01:00,
2013-03-11 16:06:00,26.3,17.8,29.82,North,351,9.0,-999.0,70,0.00,,,0.00,Wunderground v.1.15,2013-03-11 21:06:00,
2013-03-11 16:11:00,26.4,17.6,29.82,NW,307,10.0,-999.0,69,0.00,,,0.00,Wunderground v.1.15,2013-03-11 21:11:00,
2013-03-11 16:16:00,26.6,17.8,29.82,NNW,347,9.0,-999.0,69,0.00,,,0.00,Wunderground v.1.15,2013-03-11 21:16:00,
2013-03-11 16:21:00,26.9,18.7,29.82,NNW,345,7.0,-999.0,71,0.00,,,0.00,Wunderground v.1.15,2013-03-11 21:21:00,
2013-03-11 16:26:00,26.9,18.4,29.82,NNW,346,8.0,-999.0,70,0.00,,,0.00,Wunderground v.1.15,2013-03-11 21:26:00,
2013-03-11 16:31:00,27.2,18.7,29.82,NNW,334,16.0,-999.0,70,0.00,,,0.00,Wunderground v.1.15,2013-03-11 21:31:00,
2013-03-11 16:36:00,27.3,19.1,29.82,NW,318,6.0,-999.0,71,0.00,,,0.00,Wunderground v.1.15,2013-03-11 21:36:00,
2013-03-11 16:41:00,27.5,18.7,29.82,NNW,343,12.0,-999.0,69,0.00,,,0.00,Wunderground v.1.15,2013-03-11 21:41:00,
2013-03-11 16:46:00,27.5,18.3,29.81,NW,324,9.0,-999.0,68,0.00,,,0.00,Wunderground v.1.15,2013-03-11 21:46:00,
2013-03-11 16:51:00,27.5,18.3,29.81,NW,325,10.0,-999.0,68,0.00,,,0.00,Wunderground v.1.15,2013-03-11 21:51:00,
2013-03-11 16:56:00,27.6,18.4,29.81,NNW,340,10.0,-999.0,68,0.00,,,0.00,Wunderground v.1.15,2013-03-11 21:56:00,
2013-03-11 17:01:00,27.6,18.1,29.81,NW,312,15.0,-999.0,67,0.00,,,0.00,Wunderground v.1.15,2013-03-11 22:01:00,
2013-03-11 17:06:00,27.8,18.3,29.81,NNW,336,6.0,-999.0,67,0.00,,,0.00,Wunderground v.1.15,2013-03-11 22:06:00,
2013-03-11 17:11:00,27.8,18.3,29.81,NNW,340,9.0,-999.0,67,0.00,,,0.00,Wunderground v.1.15,2013-03-11 22:11:00,
2013-03-11 17:16:00,27.8,18.3,29.81,NNW,344,12.0,-999.0,67,0.00,,,0.00,Wunderground v.1.15,2013-03-11 22:16:00,
2013-03-11 17:21:00,27.9,18.4,29.81,NNW,344,13.0,-999.0,67,0.00,,,0.00,Wunderground v.1.15,2013-03-11 22:21:00,
2013-03-11 17:26:00,27.8,18.3,29.81,NNW,333,12.0,-999.0,67,0.00,,,0.00,Wunderground v.1.15,2013-03-11 22:26:00,
2013-03-11 17:31:00,27.8,18.3,29.81,NW,320,7.0,-999.0,67,0.00,,,0.00,Wunderground v.1.15,2013-03-11 22:31:00,
2013-03-11 17:36:00,27.8,18.3,29.81,NW,323,10.0,-999.0,67,0.00,,,0.00,Wunderground v.1.15,2013-03-11 22:36:00,
2013-03-11 17:41:00,27.8,18.6,29.81,NW,323,8.0,-999.0,68,0.00,,,0.00,Wunderground v.1.15,2013-03-11 22:41:00,
2013-03-11 17:46:00,27.8,18.6,29.81,NW,311,5.0,-999.0,68,0.00,,,0.00,Wunderground v.1.15,2013-03-11 22:46:00,
2013-03-11 17:51:00,27.9,19.4,29.81,NW,323,5.0,-999.0,70,0.00,,,0.00,Wunderground v.1.15,2013-03-11 22:51:00,
2013-03-11 17:57:00,28.1,19.2,29.81,NNW,339,10.0,-999.0,69,0.00,,,0.00,Wunderground v.1.15,2013-03-11 22:57:00,
2013-03-11 18:02:00,28.2,19.3,29.81,NW,323,10.0,-999.0,69,0.00,,,0.00,Wunderground v.1.15,2013-03-11 23:02:00,
2013-03-11 18:07:00,28.4,19.9,29.81,NNW,348,7.0,-999.0,70,0.00,,,0.00,Wunderground v.1.15,2013-03-11 23:07:00,
2013-03-11 18:12:00,28.4,19.5,29.81,NNW,337,6.0,-999.0,69,0.00,,,0.00,Wunderground v.1.15,2013-03-11 23:12:00,
2013-03-11 18:17:00,28.5,19.3,29.81,NW,306,10.0,-999.0,68,0.00,,,0.00,Wunderground v.1.15,2013-03-11 23:17:00,
2013-03-11 18:22:00,28.5,19.3,29.81,NW,311,6.0,-999.0,68,0.00,,,0.00,Wunderground v.1.15,2013-03-11 23:22:00,
2013-03-11 18:27:00,28.4,19.2,29.81,NNW,330,10.0,-999.0,68,0.00,,,0.00,Wunderground v.1.15,2013-03-11 23:27:00,
2013-03-11 18:32:00,28.1,19.2,29.81,NW,311,2.0,-999.0,69,0.00,,,0.00,Wunderground v.1.15,2013-03-11 23:32:00,
2013-03-11 18:37:00,28.1,19.6,29.81,NW,323,5.0,-999.0,70,0.00,,,0.00,Wunderground v.1.15,2013-03-11 23:37:00,
2013-03-11 18:42:00,27.8,19.3,29.81,NW,316,6.0,-999.0,70,0.00,,,0.00,Wunderground v.1.15,2013-03-11 23:42:00,
2013-03-11 18:47:00,27.6,19.4,29.82,NW,306,5.0,-999.0,71,0.00,,,0.00,Wunderground v.1.15,2013-03-11 23:47:00,
2013-03-11 18:52:00,27.5,19.3,29.82,NW,315,6.0,-999.0,71,0.00,,,0.00,Wunderground v.1.15,2013-03-11 23:52:00,
2013-03-11 18:57:00,27.2,19.0,29.82,NW,321,6.0,-999.0,71,0.00,,,0.00,Wunderground v.1.15,2013-03-11 23:57:00,
2013-03-11 19:02:00,27.2,19.0,29.83,NW,313,4.0,-999.0,71,0.00,,,0.00,Wunderground v.1.15,2013-03-12 00:02:00,
2013-03-11 19:07:00,27.0,19.2,29.83,NW,308,4.0,-999.0,72,0.00,,,0.00,Wunderground v.1.15,2013-03-12 00:07:00,
2013-03-11 19:12:00,27.2,19.7,29.83,WNW,294,1.0,-999.0,73,0.00,,,0.00,Wunderground v.1.15,2013-03-12 00:12:00,
2013-03-11 19:17:00,27.2,19.7,29.83,WNW,288,5.0,-999.0,73,0.00,,,0.00,Wunderground v.1.15,2013-03-12 00:17:00,
2013-03-11 19:22:00,27.3,19.8,29.83,NW,326,3.0,-999.0,73,0.00,,,0.00,Wunderground v.1.15,2013-03-12 00:22:00,
2013-03-11 19:27:00,27.3,19.8,29.83,NW,304,3.0,-999.0,73,0.00,,,0.00,Wunderground v.1.15,2013-03-12 00:27:00,
2013-03-11 19:32:00,27.3,19.8,29.84,WNW,287,10.0,-999.0,73,0.00,,,0.00,Wunderground v.1.15,2013-03-12 00:32:00,
2013-03-11 19:37:00,27.5,19.7,29.84,WNW,290,4.0,-999.0,72,0.00,,,0.00,Wunderground v.1.15,2013-03-12 00:37:00,
2013-03-11 19:42:00,27.5,19.7,29.84,WNW,298,4.0,-999.0,72,0.00,,,0.00,Wunderground v.1.15,2013-03-12 00:42:00,
2013-03-11 19:47:00,27.6,19.8,29.85,WNW,290,2.0,-999.0,72,0.00,,,0.00,Wunderground v.1.15,2013-03-12 00:47:00,
2013-03-11 19:52:00,27.6,20.1,29.85,WNW,293,5.0,-999.0,73,0.00,,,0.00,Wunderground v.1.15,2013-03-12 00:52:00,
2013-03-11 19:57:00,27.6,20.1,29.85,WNW,291,5.0,-999.0,73,0.00,,,0.00,Wunderground v.1.15,2013-03-12 00:57:00,
2013-03-11 20:02:00,27.6,20.4,29.85,WNW,284,6.0,-999.0,74,0.00,,,0.00,Wunderground v.1.15,2013-03-12 01:02:00,
2013-03-11 20:07:00,27.6,20.4,29.85,WNW,296,4.0,-999.0,74,0.00,,,0.00,Wunderground v.1.15,2013-03-12 01:07:00,
2013-03-11 20:12:00,27.8,20.3,29.85,NW,310,5.0,-999.0,73,0.00,,,0.00,Wunderground v.1.15,2013-03-12 01:12:00,
2013-03-11 20:17:00,27.8,20.3,29.85,NW,325,5.0,-999.0,73,0.00,,,0.00,Wunderground v.1.15,2013-03-12 01:17:00,
2013-03-11 20:22:00,27.9,20.0,29.85,WNW,303,4.0,-999.0,72,0.00,,,0.00,Wunderground v.1.15,2013-03-12 01:22:00,
2013-03-11 20:27:00,27.9,20.0,29.85,NW,317,5.0,-999.0,72,0.00,,,0.00,Wunderground v.1.15,2013-03-12 01:27:00,
2013-03-11 20:32:00,27.9,19.7,29.86,WNW,296,4.0,-999.0,71,0.00,,,0.00,Wunderground v.1.15,2013-03-12 01:32:00,
2013-03-11 20:37:00,27.9,19.7,29.86,WNW,300,2.0,-999.0,71,0.00,,,0.00,Wunderground v.1.15,2013-03-12 01:37:00,
2013-03-11 20:42:00,27.8,19.6,29.86,WNW,300,3.0,-999.0,71,0.00,,,0.00,Wunderground v.1.15,2013-03-12 01:42:00,
2013-03-11 20:47:00,27.8,19.6,29.86,WNW,294,5.0,-999.0,71,0.00,,,0.00,Wunderground v.1.15,2013-03-12 01:47:00,
2013-03-11 20:53:00,27.8,19.6,29.86,WNW,294,3.0,-999.0,71,0.00,,,0.00,Wunderground v.1.15,2013-03-12 01:53:00,
2013-03-11 20:58:00,27.8,19.6,29.87,WNW,292,6.0,-999.0,71,0.00,,,0.00,Wunderground v.1.15,2013-03-12 01:58:00,
2013-03-11 21:03:00,27.9,19.7,29.87,WNW,303,2.0,-999.0,71,0.00,,,0.00,Wunderground v.1.15,2013-03-12 02:03:00,
2013-03-11 21:08:00,27.9,19.7,29.87,WNW,295,4.0,-999.0,71,0.00,,,0.00,Wunderground v.1.15,2013-03-12 02:08:00,
2013-03-11 21:13:00,27.9,19.7,29.87,WNW,292,2.0,-999.0,71,0.00,,,0.00,Wunderground v.1.15,2013-03-12 02:13:00,
2013-03-11 21:18:00,27.9,19.7,29.87,WNW,283,4.0,-999.0,71,0.00,,,0.00,Wunderground v.1.15,2013-03-12 02:18:00,
2013-03-11 21:23:00,27.9,19.4,29.87,NW,305,5.0,-999.0,70,0.00,,,0.00,Wunderground v.1.15,2013-03-12 02:23:00,
2013-03-11 21:28:00,27.9,19.4,29.87,West,281,8.0,-999.0,70,0.00,,,0.00,Wunderground v.1.15,2013-03-12 02:28:00,
2013-03-11 21:33:00,27.9,19.4,29.87,West,280,5.0,-999.0,70,0.00,,,0.00,Wunderground v.1.15,2013-03-12 02:33:00,
2013-03-11 21:38:00,27.9,19.7,29.87,WNW,286,10.0,-999.0,71,0.00,,,0.00,Wunderground v.1.15,2013-03-12 02:38:00,
2013-03-11 21:43:00,27.8,19.6,29.88,WNW,293,3.0,-999.0,71,0.00,,,0.00,Wunderground v.1.15,2013-03-12 02:43:00,
2013-03-11 21:48:00,27.6,19.4,29.88,WNW,291,5.0,-999.0,71,0.00,,,0.00,Wunderground v.1.15,2013-03-12 02:48:00,
2013-03-11 21:53:00,27.5,19.7,29.88,WNW,292,2.0,-999.0,72,0.00,,,0.00,Wunderground v.1.15,2013-03-12 02:53:00,
2013-03-11 21:58:00,27.3,19.5,29.88,West,274,4.0,-999.0,72,0.00,,,0.00,Wunderground v.1.15,2013-03-12 02:58:00,
2013-03-11 22:03:00,27.0,19.2,29.88,WNW,287,6.0,-999.0,72,0.00,,,0.00,Wunderground v.1.15,2013-03-12 03:03:00,
2013-03-11 22:08:00,26.9,19.4,29.88,West,276,3.0,-999.0,73,0.00,,,0.00,Wunderground v.1.15,2013-03-12 03:08:00,
2013-03-11 22:13:00,26.7,19.2,29.88,WSW,257,2.0,-999.0,73,0.00,,,0.00,Wunderground v.1.15,2013-03-12 03:13:00,
2013-03-11 22:18:00,26.6,19.1,29.88,WNW,286,7.0,-999.0,73,0.00,,,0.00,Wunderground v.1.15,2013-03-12 03:18:00,
2013-03-11 22:23:00,26.6,19.1,29.88,WNW,295,7.0,-999.0,73,0.00,,,0.00,Wunderground v.1.15,2013-03-12 03:23:00,
2013-03-11 22:28:00,26.4,18.9,29.88,WNW,303,7.0,-999.0,73,0.00,,,0.00,Wunderground v.1.15,2013-03-12 03:28:00,
2013-03-11 22:33:00,26.3,18.8,29.88,WNW,293,5.0,-999.0,73,0.00,,,0.00,Wunderground v.1.15,2013-03-12 03:33:00,
2013-03-11 22:38:00,26.0,18.8,29.88,WNW,295,4.0,-999.0,74,0.00,,,0.00,Wunderground v.1.15,2013-03-12 03:38:00,
2013-03-11 22:43:00,25.7,18.9,29.89,WNW,299,7.0,-999.0,75,0.00,,,0.00,Wunderground v.1.15,2013-03-12 03:43:00,
2013-03-11 22:48:00,25.6,18.8,29.89,WNW,303,5.0,-999.0,75,0.00,,,0.00,Wunderground v.1.15,2013-03-12 03:48:00,
2013-03-11 22:53:00,25.3,18.8,29.89,WNW,300,4.0,-999.0,76,0.00,,,0.00,Wunderground v.1.15,2013-03-12 03:53:00,
2013-03-11 22:58:00,25.1,18.6,29.90,WNW,290,6.0,-999.0,76,0.00,,,0.00,Wunderground v.1.15,2013-03-12 03:58:00,
2013-03-11 23:00:00,25.1,18.6,29.90,West,277,11.0,-999.0,76,0.00,,,0.00,Wunderground v.1.15,2013-03-12 04:00:00,
2013-03-11 23:01:00,25.1,18.6,29.90,West,269,6.0,-999.0,76,0.00,,,0.00,Wunderground v.1.15,2013-03-12 04:01:00,
2013-03-11 23:06:00,25.1,18.6,29.90,WNW,288,5.0,-999.0,76,0.00,,,0.00,Wunderground v.1.15,2013-03-12 04:06:00,
2013-03-11 23:11:00,25.1,18.0,29.90,West,271,6.0,-999.0,74,0.00,,,0.00,Wunderground v.1.15,2013-03-12 04:11:00,
2013-03-11 23:16:00,25.0,17.6,29.90,West,267,6.0,-999.0,73,0.00,,,0.00,Wunderground v.1.15,2013-03-12 04:16:00,
2013-03-11 23:21:00,25.0,17.6,29.90,WNW,300,6.0,-999.0,73,0.00,,,0.00,Wunderground v.1.15,2013-03-12 04:21:00,
2013-03-11 23:26:00,25.1,17.3,29.90,WNW,293,10.0,-999.0,72,0.00,,,0.00,Wunderground v.1.15,2013-03-12 04:26:00,
2013-03-11 23:31:00,25.3,17.5,29.90,West,281,4.0,-999.0,72,0.00,,,0.00,Wunderground v.1.15,2013-03-12 04:31:00,
2013-03-11 23:37:00,25.6,17.8,29.90,WNW,291,7.0,-999.0,72,0.00,,,0.00,Wunderground v.1.15,2013-03-12 04:37:00,
2013-03-11 23:42:00,25.8,18.3,29.90,WNW,302,6.0,-999.0,73,0.00,,,0.00,Wunderground v.1.15,2013-03-12 04:42:00,
2013-03-11 23:46:00,26.3,19.1,29.89,West,279,12.0,-999.0,74,0.00,,,0.00,Wunderground v.1.15,2013-03-12 04:46:00,
2013-03-11 23:52:00,26.6,19.4,29.89,NW,323,7.0,-999.0,74,0.00,,,0.00,Wunderground v.1.15,2013-03-12 04:52:00,
2013-03-11 23:57:00,26.7,19.5,29.89,NW,313,11.0,-999.0,74,0.00,,,0.00,Wunderground v.1.15,2013-03-12 04:57:00,